Time;durP1;ratioP1;P1;durP2;ratioP2;P2;SDS_P1;SDS_P2;PMS_P1;PMS_P2;Temp;Humidity;BMP_temperature;BMP_pressure;BME280_temperature;BME280_humidity;BME280_pressure;Samples;Min_cycle;Max_cycle;Signal;HPM_P1;HPM_P2
2023/06/02 00:01:02;;;;;;;7.78;3.35;;;25.70;49.70;;;;;;5051095;28;20316;-67
2023/06/02 00:03:36;;;;;;;9.15;4.15;;;25.70;49.80;;;;;;5054475;28;20037;-67
2023/06/02 00:06:08;;;;;;;4.88;3.30;;;25.60;49.80;;;;;;5051884;28;20121;-67
2023/06/02 00:08:38;;;;;;;7.88;3.40;;;25.70;49.90;;;;;;5052005;28;20053;-67
2023/06/02 00:11:05;;;;;;;5.13;3.53;;;25.60;49.90;;;;;;5052220;28;20056;-67
2023/06/02 00:13:31;;;;;;;6.75;3.83;;;25.40;50.00;;;;;;5034873;28;20112;-67
2023/06/02 00:15:57;;;;;;;6.97;3.30;;;25.50;49.90;;;;;;5052015;28;20071;-67
2023/06/02 00:18:25;;;;;;;6.32;3.38;;;25.60;50.00;;;;;;5051923;28;20123;-66
2023/06/02 00:20:51;;;;;;;5.53;3.80;;;25.60;50.00;;;;;;5051615;28;20048;-67
2023/06/02 00:23:18;;;;;;;8.02;3.63;;;25.50;50.10;;;;;;5051782;28;20049;-67
2023/06/02 00:25:45;;;;;;;5.57;3.83;;;25.50;50.10;;;;;;5051711;28;20090;-67
2023/06/02 00:28:11;;;;;;;5.00;3.47;;;25.60;50.00;;;;;;5051674;28;20032;-67
2023/06/02 00:30:37;;;;;;;8.63;4.35;;;25.40;50.00;;;;;;5051643;28;20056;-67
2023/06/02 00:33:04;;;;;;;4.60;3.22;;;25.50;50.10;;;;;;5051409;28;20041;-67
2023/06/02 00:35:30;;;;;;;8.90;3.42;;;25.40;50.20;;;;;;5034693;28;20033;-68
2023/06/02 00:37:56;;;;;;;7.85;4.30;;;25.40;50.30;;;;;;5051576;28;20045;-67
2023/06/02 00:40:23;;;;;;;9.30;3.95;;;25.30;50.50;;;;;;5051632;28;20048;-67
2023/06/02 00:42:49;;;;;;;5.35;4.00;;;25.30;50.60;;;;;;5051780;28;20087;-67
2023/06/02 00:45:16;;;;;;;7.40;4.47;;;25.30;50.80;;;;;;5053970;28;20037;-67
2023/06/02 00:47:42;;;;;;;8.35;4.10;;;25.30;50.80;;;;;;5052421;28;20453;-67
2023/06/02 00:50:09;;;;;;;4.47;3.70;;;25.20;50.90;;;;;;5052519;28;20108;-67
2023/06/02 00:52:39;;;;;;;7.43;4.00;;;25.30;51.00;;;;;;5053810;28;20123;-67
2023/06/02 00:55:07;;;;;;;5.68;3.83;;;25.30;51.10;;;;;;5052248;28;20722;-67
2023/06/02 00:57:34;;;;;;;7.88;4.00;;;25.30;51.10;;;;;;5053747;28;20037;-67
2023/06/02 01:00:04;;;;;;;5.10;3.45;;;25.30;51.20;;;;;;5053485;28;20045;-67
2023/06/02 01:02:31;;;;;;;5.85;3.53;;;25.30;51.20;;;;;;5053370;28;20037;-67
2023/06/02 01:04:57;;;;;;;8.43;3.30;;;25.20;51.20;;;;;;5053791;28;20040;-67
2023/06/02 01:07:25;;;;;;;6.20;4.18;;;25.30;51.30;;;;;;5053559;28;20032;-67
2023/06/02 01:09:58;;;;;;;8.15;3.80;;;25.30;51.40;;;;;;5053311;28;20035;-67
2023/06/02 01:12:24;;;;;;;8.75;3.85;;;25.30;51.50;;;;;;5051440;28;20033;-67
2023/06/02 01:14:51;;;;;;;5.32;3.25;;;25.30;51.50;;;;;;5052084;28;20739;-67
2023/06/02 01:17:19;;;;;;;8.13;3.80;;;25.20;51.50;;;;;;5051981;28;20068;-67
2023/06/02 01:19:49;;;;;;;6.20;3.72;;;25.20;51.50;;;;;;5052882;28;20049;-67
2023/06/02 01:22:23;;;;;;;7.35;3.92;;;25.20;51.50;;;;;;5053574;28;20033;-67
2023/06/02 01:24:50;;;;;;;8.35;3.95;;;25.30;51.50;;;;;;5051731;28;20103;-67
2023/06/02 01:27:16;;;;;;;9.55;4.25;;;25.40;51.60;;;;;;5053121;28;20037;-67
2023/06/02 01:29:45;;;;;;;7.32;3.47;;;25.30;51.70;;;;;;5051657;28;20029;-67
2023/06/02 01:32:20;;;;;;;4.43;3.17;;;25.10;51.90;;;;;;5051943;28;20477;-67
2023/06/02 01:34:56;;;;;;;6.70;3.90;;;25.10;52.00;;;;;;5053019;28;20086;-67
2023/06/02 01:37:24;;;;;;;9.63;4.35;;;25.20;52.00;;;;;;5053007;28;20485;-67
2023/06/02 01:39:53;;;;;;;9.57;4.00;;;25.10;51.90;;;;;;5052942;28;20086;-67
2023/06/02 01:42:21;;;;;;;5.65;3.60;;;25.10;52.00;;;;;;5051585;28;20033;-69
2023/06/02 01:44:48;;;;;;;10.15;3.75;;;25.00;52.00;;;;;;5050985;28;20033;-67
2023/06/02 01:47:14;;;;;;;6.80;3.60;;;25.10;52.00;;;;;;5051391;28;20037;-67
2023/06/02 01:49:41;;;;;;;5.82;3.13;;;25.00;52.00;;;;;;5051493;28;20025;-67
2023/06/02 01:52:07;;;;;;;5.18;3.58;;;25.10;52.00;;;;;;5052794;28;20070;-67
2023/06/02 01:54:33;;;;;;;6.38;4.05;;;25.10;52.00;;;;;;5052409;28;20484;-67
2023/06/02 01:56:59;;;;;;;8.48;4.00;;;25.00;52.00;;;;;;5052425;28;20032;-67
2023/06/02 01:59:26;;;;;;;5.15;4.07;;;25.00;52.00;;;;;;5051289;28;20049;-67
2023/06/02 02:01:52;;;;;;;6.65;4.53;;;25.00;52.00;;;;;;5051193;28;20037;-67
2023/06/02 02:04:18;;;;;;;7.43;3.63;;;25.00;52.00;;;;;;5052530;28;20102;-67
2023/06/02 02:06:52;;;;;;;10.15;4.47;;;25.00;52.20;;;;;;5050704;28;20082;-67
2023/06/02 02:09:18;;;;;;;7.05;4.07;;;25.10;52.40;;;;;;5052231;28;20033;-67
2023/06/02 02:11:44;;;;;;;3.78;3.40;;;24.90;52.60;;;;;;5052248;28;20469;-67
2023/06/02 02:14:13;;;;;;;5.30;3.22;;;25.00;52.60;;;;;;5052049;28;20056;-67
2023/06/02 02:16:44;;;;;;;8.48;4.22;;;25.10;52.60;;;;;;5034391;28;20112;-67
2023/06/02 02:19:12;;;;;;;6.38;3.55;;;25.00;52.70;;;;;;5034180;28;20049;-67
2023/06/02 02:21:39;;;;;;;8.07;3.90;;;25.00;52.60;;;;;;5050951;28;20044;-67
2023/06/02 02:24:05;;;;;;;6.97;3.80;;;25.00;52.70;;;;;;5049900;28;20496;-67
2023/06/02 02:26:32;;;;;;;7.53;4.35;;;24.90;52.80;;;;;;5051882;28;20105;-67
2023/06/02 02:28:58;;;;;;;10.05;4.72;;;25.10;52.80;;;;;;5050567;28;20037;-67
2023/06/02 02:31:24;;;;;;;6.57;3.90;;;25.10;52.90;;;;;;5052111;28;20033;-67
2023/06/02 02:33:50;;;;;;;6.68;3.45;;;25.00;52.90;;;;;;5069077;28;20078;-67
2023/06/02 02:36:17;;;;;;;11.18;4.43;;;25.00;52.90;;;;;;5052566;28;20520;-67
2023/06/02 02:38:43;;;;;;;7.10;4.13;;;25.20;52.80;;;;;;5069294;28;20075;-67
2023/06/02 02:41:10;;;;;;;6.28;4.15;;;25.20;52.90;;;;;;5052739;28;20436;-67
2023/06/02 02:43:37;;;;;;;7.90;4.10;;;25.30;52.80;;;;;;5029043;28;20049;-67
2023/06/02 02:46:05;;;;;;;12.13;4.38;;;25.20;52.90;;;;;;5029249;28;20050;-67
2023/06/02 02:48:33;;;;;;;12.48;4.60;;;25.20;52.80;;;;;;5012817;28;20045;-67
2023/06/02 02:50:59;;;;;;;7.57;4.43;;;25.10;52.80;;;;;;5012591;28;20135;-67
2023/06/02 02:53:30;;;;;;;10.30;4.43;;;25.20;52.80;;;;;;5012620;28;20053;-67
2023/06/02 02:55:56;;;;;;;11.82;4.43;;;25.30;52.80;;;;;;5012597;28;20034;-68
2023/06/02 02:58:24;;;;;;;7.30;4.15;;;25.30;52.80;;;;;;4996556;28;20052;-67
2023/06/02 03:00:50;;;;;;;7.30;3.97;;;25.20;52.70;;;;;;5032081;28;20090;-67
2023/06/02 03:03:20;;;;;;;5.57;3.55;;;25.30;52.70;;;;;;5032109;28;20483;-67
2023/06/02 03:05:49;;;;;;;6.43;3.97;;;25.30;52.80;;;;;;5048659;28;20456;-67
2023/06/02 03:08:17;;;;;;;7.20;3.80;;;25.30;52.70;;;;;;5032326;28;20045;-67
2023/06/02 03:10:45;;;;;;;8.60;4.25;;;25.30;52.80;;;;;;5048697;28;20496;-67
2023/06/02 03:13:12;;;;;;;6.50;4.20;;;25.30;52.80;;;;;;5034986;28;20090;-67
2023/06/02 03:15:39;;;;;;;8.50;4.25;;;25.30;52.70;;;;;;5069079;28;20059;-68
2023/06/02 03:18:06;;;;;;;8.07;3.90;;;25.30;52.60;;;;;;5072000;28;20071;-67
2023/06/02 03:20:32;;;;;;;8.45;3.75;;;25.30;52.60;;;;;;5071930;28;20047;-67
2023/06/02 03:22:58;;;;;;;8.23;3.83;;;25.40;52.50;;;;;;5072004;28;20048;-67
2023/06/02 03:25:25;;;;;;;7.88;4.32;;;25.30;52.50;;;;;;5055443;28;20099;-67
2023/06/02 03:27:53;;;;;;;6.65;3.05;;;25.50;52.50;;;;;;5072250;28;20040;-72
2023/06/02 03:30:20;;;;;;;8.63;3.35;;;25.50;52.50;;;;;;5072044;28;20530;-72
2023/06/02 03:32:48;;;;;;;7.65;3.30;;;25.60;52.20;;;;;;5033671;28;20044;-71
2023/06/02 03:35:14;;;;;;;9.40;4.47;;;25.50;51.00;;;;;;5049407;28;20103;-72
2023/06/02 03:37:41;;;;;;;8.50;3.67;;;25.60;49.90;;;;;;5035944;28;20155;-72
2023/06/02 03:40:09;;;;;;;6.50;3.92;;;25.70;48.90;;;;;;5035984;28;20052;-71
2023/06/02 03:42:37;;;;;;;7.45;3.70;;;25.60;48.20;;;;;;5052769;28;20045;-72
2023/06/02 03:45:06;;;;;;;7.25;4.43;;;25.70;47.50;;;;;;5035687;28;20033;-71
2023/06/02 03:47:32;;;;;;;8.43;4.30;;;25.70;47.00;;;;;;5052271;28;20045;-69
2023/06/02 03:49:58;;;;;;;9.07;4.85;;;25.70;47.20;;;;;;5052017;28;20037;-72
2023/06/02 03:52:24;;;;;;;11.32;5.72;;;26.00;50.80;;;;;;5052668;28;20183;-73
2023/06/02 03:54:52;;;;;;;9.27;4.90;;;26.20;52.50;;;;;;5052307;28;20068;-71
2023/06/02 03:57:19;;;;;;;16.17;5.30;;;26.30;52.90;;;;;;5035916;28;20045;-72
2023/06/02 03:59:45;;;;;;;8.75;4.65;;;26.50;51.50;;;;;;5052223;28;20465;-74
2023/06/02 04:02:12;;;;;;;8.55;5.05;;;26.40;49.70;;;;;;5052494;28;20056;-71
2023/06/02 04:04:38;;;;;;;6.78;4.75;;;26.30;48.90;;;;;;5053141;28;20076;-74
2023/06/02 04:07:05;;;;;;;9.25;5.10;;;26.30;48.70;;;;;;5053190;28;20390;-71
2023/06/02 04:09:32;;;;;;;9.15;5.63;;;26.30;48.40;;;;;;5053269;28;20115;-72
2023/06/02 04:11:59;;;;;;;26.17;8.32;;;26.30;48.50;;;;;;5036769;28;20082;-71
2023/06/02 04:14:27;;;;;;;20.55;6.90;;;26.30;48.40;;;;;;5053067;28;20048;-71
2023/06/02 04:16:54;;;;;;;15.80;6.13;;;26.30;48.30;;;;;;5053052;28;20044;-70
2023/06/02 04:19:22;;;;;;;14.55;7.18;;;26.50;48.30;;;;;;5053009;28;20084;-71
2023/06/02 04:21:48;;;;;;;13.02;6.13;;;26.30;48.30;;;;;;5054437;28;20036;-71
2023/06/02 04:24:14;;;;;;;14.65;7.18;;;26.20;48.40;;;;;;5052922;28;20112;-71
2023/06/02 04:26:40;;;;;;;12.73;6.43;;;26.30;48.30;;;;;;5052884;28;20044;-71
2023/06/02 04:29:06;;;;;;;15.80;6.47;;;26.50;48.30;;;;;;5052920;28;20470;-75
2023/06/02 04:31:42;;;;;;;12.65;5.53;;;26.50;48.20;;;;;;5036777;28;20389;-74
2023/06/02 04:34:12;;;;;;;14.50;5.90;;;26.20;48.00;;;;;;5053004;28;20037;-74
2023/06/02 04:36:40;;;;;;;15.90;5.95;;;26.30;47.20;;;;;;5036454;28;20029;-74
2023/06/02 04:39:07;;;;;;;19.85;6.47;;;26.10;46.10;;;;;;5036302;28;20440;-73
2023/06/02 04:41:36;;;;;;;14.75;6.53;;;26.20;45.80;;;;;;5053945;28;20033;-73
2023/06/02 04:44:04;;;;;;;12.55;6.47;;;26.20;45.20;;;;;;5036008;28;20467;-73
2023/06/02 04:46:30;;;;;;;17.05;6.45;;;26.20;45.20;;;;;;5035504;28;20700;-73
2023/06/02 04:48:56;;;;;;;12.43;5.10;;;26.00;45.30;;;;;;5053788;28;20041;-73
2023/06/02 04:51:27;;;;;;;12.00;6.05;;;26.10;45.20;;;;;;5052667;28;20032;-73
2023/06/02 04:53:53;;;;;;;12.77;5.93;;;26.00;45.00;;;;;;5052259;28;20358;-73
2023/06/02 04:56:20;;;;;;;15.20;5.68;;;25.90;44.50;;;;;;5051098;28;20477;-73
2023/06/02 04:58:46;;;;;;;14.35;5.97;;;26.00;44.90;;;;;;5034129;28;20211;-73
2023/06/02 05:01:13;;;;;;;17.30;6.15;;;26.00;44.90;;;;;;5050880;28;20469;-73
2023/06/02 05:03:40;;;;;;;11.27;4.80;;;26.00;44.80;;;;;;5034309;28;20128;-72
2023/06/02 05:06:06;;;;;;;14.48;5.70;;;26.10;44.80;;;;;;5051150;28;20048;-71
2023/06/02 05:08:33;;;;;;;11.52;4.93;;;26.00;44.70;;;;;;5034493;28;20032;-71
2023/06/02 05:10:59;;;;;;;8.27;4.28;;;26.00;44.70;;;;;;5021180;28;20045;-72
2023/06/02 05:13:27;;;;;;;8.23;3.88;;;26.00;45.30;;;;;;5031150;28;20116;-72
2023/06/02 05:15:55;;;;;;;6.72;3.63;;;26.10;45.60;;;;;;5014403;28;20567;-73
2023/06/02 05:18:23;;;;;;;4.45;3.40;;;26.00;46.10;;;;;;5014745;28;20084;-72
2023/06/02 05:20:52;;;;;;;10.40;3.92;;;26.10;45.90;;;;;;4997902;28;20057;-73
2023/06/02 05:23:19;;;;;;;7.60;3.88;;;26.10;47.30;;;;;;5014397;28;20060;-75
2023/06/02 05:25:50;;;;;;;6.57;4.57;;;26.20;49.70;;;;;;5014060;28;20096;-73
2023/06/02 05:28:16;;;;;;;5.82;3.50;;;26.20;51.60;;;;;;5014492;28;20088;-74
2023/06/02 05:30:43;;;;;;;7.78;3.47;;;26.20;48.20;;;;;;5014466;28;20056;-74
2023/06/02 05:33:10;;;;;;;8.65;3.72;;;26.30;48.00;;;;;;5031073;28;20110;-73
2023/06/02 05:35:36;;;;;;;7.43;3.70;;;26.30;47.40;;;;;;5051489;28;20040;-74
2023/06/02 05:38:02;;;;;;;12.00;4.28;;;26.30;46.90;;;;;;5053028;28;20047;-74
2023/06/02 05:40:28;;;;;;;7.50;3.42;;;26.20;47.60;;;;;;5051263;28;20102;-72
2023/06/02 05:42:55;;;;;;;8.93;3.60;;;26.30;47.30;;;;;;5035130;28;20037;-73
2023/06/02 05:45:22;;;;;;;8.25;3.50;;;26.30;47.50;;;;;;5051681;28;20032;-73
2023/06/02 05:47:50;;;;;;;5.00;3.10;;;26.20;47.50;;;;;;5051470;28;20029;-74
2023/06/02 05:50:18;;;;;;;5.10;2.40;;;26.30;47.80;;;;;;5034964;28;20033;-74
2023/06/02 05:52:44;;;;;;;5.45;2.63;;;26.20;47.00;;;;;;5034545;28;20029;-72
2023/06/02 05:55:11;;;;;;;4.13;2.85;;;26.20;46.40;;;;;;5034549;28;20369;-75
2023/06/02 05:57:37;;;;;;;10.38;4.55;;;26.20;46.20;;;;;;5052587;28;20037;-75
2023/06/02 06:00:07;;;;;;;9.18;4.97;;;26.20;46.00;;;;;;5050164;28;20041;-74
2023/06/02 06:02:39;;;;;;;9.63;4.20;;;26.20;46.10;;;;;;5051126;28;20033;-73
2023/06/02 06:05:09;;;;;;;7.70;4.60;;;26.00;47.60;;;;;;5051228;28;20112;-74
2023/06/02 06:07:36;;;;;;;6.68;4.15;;;26.20;48.70;;;;;;5050875;28;20139;-73
2023/06/02 06:10:03;;;;;;;8.05;4.15;;;26.30;49.70;;;;;;5031304;28;20116;-75
2023/06/02 06:12:30;;;;;;;11.13;4.97;;;26.10;50.40;;;;;;5031230;28;20029;-73
2023/06/02 06:14:56;;;;;;;5.90;3.85;;;26.20;52.60;;;;;;5030767;28;20497;-78
2023/06/02 06:17:22;;;;;;;5.72;4.10;;;26.20;51.80;;;;;;5030829;28;20040;-74
2023/06/02 06:19:48;;;;;;;9.80;3.15;;;26.30;51.20;;;;;;5031948;28;20088;-74
2023/06/02 06:22:14;;;;;;;7.15;4.40;;;26.10;48.30;;;;;;5042488;28;20096;-75
2023/06/02 06:24:40;;;;;;;6.90;3.65;;;26.10;46.70;;;;;;5065596;28;20044;-74
2023/06/02 06:27:07;;;;;;;7.47;3.85;;;26.20;47.00;;;;;;5053150;28;20465;-70
2023/06/02 06:29:34;;;;;;;8.07;4.35;;;26.00;46.90;;;;;;5052881;28;20039;-71
2023/06/02 06:32:02;;;;;;;7.72;4.32;;;26.10;46.70;;;;;;5054401;28;20438;-72
2023/06/02 06:34:28;;;;;;;7.97;3.65;;;26.00;46.80;;;;;;5070334;28;20031;-73
2023/06/02 06:36:54;;;;;;;8.57;4.18;;;26.20;46.50;;;;;;5072250;28;20037;-67
2023/06/02 06:39:21;;;;;;;6.78;4.05;;;26.30;45.80;;;;;;5057743;28;20045;-68
2023/06/02 06:41:46;;;;;;;10.98;3.75;;;26.10;47.90;;;;;;5049529;28;20574;-67
2023/06/02 06:44:24;;;;;;;11.55;5.30;;;26.20;47.20;;;;;;5050382;28;20495;-68
2023/06/02 06:46:50;;;;;;;8.05;5.20;;;26.10;47.00;;;;;;5052062;28;20028;-67
2023/06/02 06:49:16;;;;;;;8.07;4.25;;;26.20;47.30;;;;;;5050426;28;20068;-69
2023/06/02 06:51:42;;;;;;;14.43;5.55;;;26.30;47.30;;;;;;5051677;28;20071;-68
2023/06/02 06:54:10;;;;;;;7.53;3.72;;;26.30;47.70;;;;;;5050424;28;20029;-67
2023/06/02 06:56:36;;;;;;;7.95;3.65;;;26.20;48.10;;;;;;5065434;28;20040;-68
2023/06/02 06:59:02;;;;;;;7.45;3.95;;;26.20;48.40;;;;;;5071453;28;20032;-67
2023/06/02 07:01:28;;;;;;;13.65;4.88;;;26.10;48.50;;;;;;5071467;28;20042;-68
2023/06/02 07:03:53;;;;;;;7.45;3.83;;;26.10;48.50;;;;;;5071330;28;20025;-67
2023/06/02 07:06:20;;;;;;;7.90;4.50;;;26.20;48.20;;;;;;5053264;28;20029;-69
2023/06/02 07:08:46;;;;;;;10.25;5.00;;;26.10;48.80;;;;;;5050324;28;20064;-68
2023/06/02 07:11:12;;;;;;;13.30;4.50;;;26.00;48.90;;;;;;5051283;28;20029;-67
2023/06/02 07:13:38;;;;;;;8.88;5.53;;;26.20;48.20;;;;;;5051281;28;20112;-66
2023/06/02 07:16:05;;;;;;;6.53;4.65;;;26.10;49.50;;;;;;5051130;28;20052;-67
2023/06/02 07:18:31;;;;;;;8.02;4.97;;;26.00;49.10;;;;;;5050851;28;20078;-69
2023/06/02 07:20:59;;;;;;;14.85;4.38;;;26.20;49.00;;;;;;5050802;28;20052;-69
2023/06/02 07:23:26;;;;;;;10.18;4.55;;;26.20;48.70;;;;;;5049736;28;20036;-70
2023/06/02 07:25:52;;;;;;;10.30;4.43;;;26.10;48.50;;;;;;5049676;28;20396;-68
2023/06/02 07:28:18;;;;;;;8.20;4.80;;;26.30;48.40;;;;;;5050816;28;20036;-69
2023/06/02 07:30:51;;;;;;;6.63;4.28;;;26.30;48.40;;;;;;5065517;28;20025;-68
2023/06/02 07:33:18;;;;;;;10.13;3.83;;;26.10;48.30;;;;;;5069821;28;20060;-68
2023/06/02 07:35:44;;;;;;;5.75;3.65;;;26.20;48.30;;;;;;5070939;28;20041;-68
2023/06/02 07:38:10;;;;;;;5.00;3.40;;;26.30;48.10;;;;;;5071298;28;20082;-67
2023/06/02 07:40:36;;;;;;;6.55;3.90;;;26.30;47.80;;;;;;5069646;28;20040;-69
2023/06/02 07:43:03;;;;;;;6.88;4.03;;;26.30;48.10;;;;;;5071303;28;20048;-68
2023/06/02 07:45:29;;;;;;;5.63;3.80;;;26.30;48.00;;;;;;5057053;28;20082;-67
2023/06/02 07:47:56;;;;;;;5.90;3.55;;;26.30;48.10;;;;;;5050967;28;20437;-67
2023/06/02 07:50:22;;;;;;;6.22;3.47;;;26.40;48.00;;;;;;5050363;28;20140;-67
2023/06/02 07:52:48;;;;;;;6.10;3.30;;;26.40;48.00;;;;;;5049908;28;20021;-69
2023/06/02 07:55:14;;;;;;;5.97;3.45;;;26.20;49.00;;;;;;5048781;28;20033;-68
2023/06/02 07:57:40;;;;;;;6.18;3.53;;;26.30;48.30;;;;;;5049338;28;20055;-68
2023/06/02 08:00:15;;;;;;;4.90;2.95;;;26.30;47.70;;;;;;5049023;28;20044;-67
2023/06/02 08:02:43;;;;;;;7.78;3.42;;;26.30;48.50;;;;;;5048535;28;20036;-68
2023/06/02 08:05:09;;;;;;;3.97;3.42;;;26.20;47.90;;;;;;5048887;28;20117;-67
2023/06/02 08:07:36;;;;;;;4.50;3.17;;;26.10;47.60;;;;;;5049212;28;20056;-65
2023/06/02 08:10:04;;;;;;;11.00;3.80;;;26.30;47.50;;;;;;5048904;28;20155;-66
2023/06/02 08:12:30;;;;;;;6.75;3.28;;;26.30;47.90;;;;;;5050134;28;20029;-65
2023/06/02 08:14:56;;;;;;;4.55;2.72;;;26.20;47.90;;;;;;5050098;28;20078;-67
2023/06/02 08:17:22;;;;;;;5.53;3.42;;;26.10;48.00;;;;;;5050271;28;20037;-68
2023/06/02 08:19:48;;;;;;;5.18;3.08;;;26.30;47.90;;;;;;5049539;28;20045;-68
2023/06/02 08:22:14;;;;;;;2.40;1.65;;;26.20;48.00;;;;;;5051198;28;20036;-69
2023/06/02 08:24:41;;;;;;;10.68;3.28;;;26.20;48.20;;;;;;5052765;28;20473;-68
2023/06/02 08:27:08;;;;;;;5.32;3.35;;;26.20;48.40;;;;;;5053756;28;20499;-73
2023/06/02 08:29:34;;;;;;;10.20;3.17;;;26.30;48.30;;;;;;5040960;28;20100;-67
2023/06/02 08:32:00;;;;;;;9.30;3.08;;;26.30;48.40;;;;;;5073579;28;20465;-68
2023/06/02 08:34:27;;;;;;;4.80;3.20;;;26.30;48.50;;;;;;5073728;28;20039;-67
2023/06/02 08:37:00;;;;;;;4.68;3.30;;;26.40;48.50;;;;;;5073574;28;20040;-68
2023/06/02 08:39:29;;;;;;;5.30;3.30;;;26.20;48.70;;;;;;5072583;28;20037;-70
2023/06/02 08:41:56;;;;;;;5.35;3.63;;;26.30;48.90;;;;;;5074166;28;20025;-68
2023/06/02 08:44:22;;;;;;;4.78;3.28;;;26.30;50.60;;;;;;5072955;28;20119;-68
2023/06/02 08:46:50;;;;;;;3.92;2.83;;;26.30;50.30;;;;;;5073860;28;20500;-72
2023/06/02 08:49:18;;;;;;;8.85;4.90;;;26.40;49.90;;;;;;5073880;28;20555;-68
2023/06/02 08:51:49;;;;;;;1.92;1.75;;;26.60;50.40;;;;;;5073991;28;20024;-66
2023/06/02 08:54:15;;;;;;;4.78;3.13;;;26.50;50.80;;;;;;5056298;28;20098;-68
2023/06/02 08:56:43;;;;;;;5.00;2.92;;;26.70;48.80;;;;;;5052532;28;20400;-71
2023/06/02 08:59:09;;;;;;;65.60;37.67;;;26.70;51.00;;;;;;5052328;28;20037;-70
2023/06/02 09:01:35;;;;;;;12.60;6.25;;;27.00;51.70;;;;;;5053921;28;20112;-70
2023/06/02 09:04:02;;;;;;;7.10;3.95;;;27.30;47.60;;;;;;5053512;28;20564;-70
2023/06/02 09:06:28;;;;;;;3.70;2.80;;;27.10;45.80;;;;;;5053245;28;20036;-73
2023/06/02 09:08:59;;;;;;;8.68;3.75;;;27.10;46.70;;;;;;5053468;28;20032;-70
2023/06/02 09:11:27;;;;;;;1.77;1.67;;;27.00;46.90;;;;;;5053513;28;20036;-73
2023/06/02 09:13:54;;;;;;;4.10;3.70;;;26.90;46.30;;;;;;5053403;28;20386;-72
2023/06/02 09:16:21;;;;;;;3.45;2.10;;;26.90;45.30;;;;;;5053003;28;20024;-72
2023/06/02 09:19:13;;;;;;;4.57;3.35;;;26.90;45.50;;;;;;5053236;28;20107;-70
2023/06/02 09:21:41;;;;;;;4.88;3.17;;;27.00;45.70;;;;;;5011145;28;20064;-68
2023/06/02 09:24:07;;;;;;;5.32;2.90;;;26.90;45.30;;;;;;4994684;28;20042;-68
2023/06/02 09:26:33;;;;;;;6.63;3.55;;;26.80;45.50;;;;;;5011118;28;20049;-68
2023/06/02 09:29:08;;;;;;;4.70;2.88;;;27.00;47.20;;;;;;5010863;28;20044;-70
2023/06/02 09:31:54;;;;;;;3.08;2.78;;;26.90;46.90;;;;;;4991278;28;20057;-70
2023/06/02 09:34:32;;;;;;;5.10;2.70;;;26.90;46.60;;;;;;4991481;28;20041;-70
2023/06/02 09:37:08;;;;;;;4.82;2.78;;;26.90;46.90;;;;;;4991157;28;20044;-75
2023/06/02 09:39:38;;;;;;;5.80;3.65;;;26.90;48.50;;;;;;4975183;28;20186;-70
2023/06/02 09:42:06;;;;;;;3.60;3.15;;;27.00;49.60;;;;;;4991125;28;20045;-75
2023/06/02 09:44:32;;;;;;;4.97;3.58;;;27.10;49.20;;;;;;4994359;28;20120;-69
2023/06/02 09:47:01;;;;;;;5.32;3.28;;;27.10;49.50;;;;;;5010177;28;20158;-76
2023/06/02 09:49:40;;;;;;;5.60;3.25;;;27.30;49.50;;;;;;5010484;28;20041;-70
2023/06/02 09:52:17;;;;;;;4.15;3.03;;;27.20;48.10;;;;;;5010246;28;20092;-72
2023/06/02 09:54:44;;;;;;;3.08;2.78;;;27.20;46.80;;;;;;5010472;28;20757;-73
2023/06/02 09:57:14;;;;;;;6.75;3.30;;;27.20;44.70;;;;;;5009985;28;20103;-70
2023/06/02 09:59:40;;;;;;;4.82;3.92;;;27.20;46.10;;;;;;5032532;28;20068;-69
2023/06/02 10:02:10;;;;;;;6.70;4.57;;;27.30;47.50;;;;;;5032202;28;20037;-69
2023/06/02 10:04:37;;;;;;;14.70;4.70;;;27.20;48.60;;;;;;5032628;28;20333;-69
2023/06/02 10:07:27;;;;;;;6.25;3.53;;;27.40;50.60;;;;;;5038725;28;20543;-69
2023/06/02 10:10:08;;;;;;;5.03;3.83;;;27.90;53.60;;;;;;5051047;28;20044;-67
2023/06/02 10:12:58;;;;;;;8.20;3.83;;;28.00;46.60;;;;;;5051820;28;20111;-68
2023/06/02 10:15:42;;;;;;;6.50;4.00;;;28.00;46.40;;;;;;5051725;28;20067;-68
2023/06/02 10:18:48;;;;;;;6.35;3.38;;;27.90;46.60;;;;;;5051507;28;20120;-68
2023/06/02 10:21:51;;;;;;;7.28;2.92;;;27.80;46.50;;;;;;5051379;28;20037;-69
2023/06/02 10:24:42;;;;;;;9.80;3.38;;;28.00;49.70;;;;;;5051487;28;20040;-69
2023/06/02 10:27:32;;;;;;;6.03;3.55;;;27.90;49.90;;;;;;5051211;28;20036;-70
2023/06/02 10:29:58;;;;;;;5.13;3.15;;;27.80;47.20;;;;;;5058155;28;20445;-69
2023/06/02 10:32:27;;;;;;;3.83;2.97;;;27.80;47.40;;;;;;5071432;28;20036;-70
2023/06/02 10:34:57;;;;;;;6.13;3.58;;;27.80;46.70;;;;;;5071407;28;20032;-70
2023/06/02 10:37:23;;;;;;;4.97;3.00;;;27.70;46.30;;;;;;5071495;28;20036;-69
2023/06/02 10:39:54;;;;;;;6.40;3.58;;;27.80;46.60;;;;;;5071703;28;20037;-71
2023/06/02 10:42:21;;;;;;;5.60;3.20;;;27.70;46.90;;;;;;5071713;28;20106;-69
2023/06/02 10:44:48;;;;;;;6.20;3.30;;;27.70;49.40;;;;;;5071185;28;20032;-69
2023/06/02 10:47:20;;;;;;;4.68;3.30;;;27.80;53.80;;;;;;5071430;28;20360;-69
2023/06/02 10:49:54;;;;;;;4.85;3.08;;;27.90;54.50;;;;;;5071603;28;20038;-69
2023/06/02 10:52:24;;;;;;;6.35;4.03;;;28.00;55.50;;;;;;5069774;28;20030;-69
2023/06/02 10:55:16;;;;;;;4.40;3.58;;;27.90;49.10;;;;;;5051288;28;20025;-71
2023/06/02 10:57:51;;;;;;;5.75;3.05;;;27.70;48.70;;;;;;5051350;28;20037;-68
2023/06/02 11:00:45;;;;;;;4.20;3.15;;;27.70;48.30;;;;;;5051079;28;20504;-69
2023/06/02 11:03:17;;;;;;;4.22;3.00;;;27.70;48.20;;;;;;5051654;28;20037;-69
2023/06/02 11:05:45;;;;;;;5.25;2.90;;;27.80;48.40;;;;;;5051513;28;20036;-67
2023/06/02 11:08:11;;;;;;;2.70;2.40;;;27.60;48.10;;;;;;5051280;28;20048;-70
2023/06/02 11:10:44;;;;;;;4.30;3.28;;;27.60;48.30;;;;;;5051251;28;20029;-70
2023/06/02 11:13:14;;;;;;;9.75;3.17;;;27.60;48.30;;;;;;5051088;28;20036;-68
2023/06/02 11:15:57;;;;;;;20.13;4.70;;;27.60;48.30;;;;;;5051246;28;20162;-68
2023/06/02 11:18:23;;;;;;;9.80;3.03;;;27.70;48.30;;;;;;5051444;28;20657;-70
2023/06/02 11:20:50;;;;;;;6.25;2.97;;;27.50;48.00;;;;;;5051058;28;20053;-69
2023/06/02 11:23:20;;;;;;;6.05;2.97;;;27.50;48.30;;;;;;5051046;28;20032;-68
2023/06/02 11:25:47;;;;;;;6.35;3.72;;;27.50;48.40;;;;;;5051343;28;20457;-70
2023/06/02 11:28:20;;;;;;;12.18;3.10;;;27.50;48.50;;;;;;5051240;28;20037;-67
2023/06/02 11:30:47;;;;;;;4.57;3.60;;;27.40;48.50;;;;;;5065801;28;20046;-69
2023/06/02 11:33:13;;;;;;;5.97;3.10;;;27.60;48.60;;;;;;5071187;28;20032;-69
2023/06/02 11:35:46;;;;;;;5.38;2.67;;;27.60;45.00;;;;;;5053097;28;20028;-69
2023/06/02 11:38:16;;;;;;;6.50;2.45;;;27.50;48.60;;;;;;5070917;28;20038;-70
2023/06/02 11:40:42;;;;;;;5.70;2.80;;;27.50;48.90;;;;;;5060751;28;20041;-69
2023/06/02 11:43:08;;;;;;;4.97;2.88;;;27.50;48.90;;;;;;5050948;28;20041;-69
2023/06/02 11:45:35;;;;;;;5.13;3.20;;;27.50;48.90;;;;;;5050975;28;20047;-69
2023/06/02 11:48:05;;;;;;;8.65;3.38;;;27.40;48.90;;;;;;5050602;28;20090;-69
2023/06/02 11:50:31;;;;;;;5.35;2.88;;;27.40;49.50;;;;;;5050780;28;20065;-69
2023/06/02 11:52:58;;;;;;;6.47;3.22;;;27.50;49.60;;;;;;5050473;28;20086;-69
2023/06/02 11:55:29;;;;;;;5.53;3.10;;;27.40;49.40;;;;;;5050874;28;20025;-68
2023/06/02 11:58:19;;;;;;;3.40;2.50;;;27.40;49.30;;;;;;5054377;28;20031;-71
2023/06/02 12:00:45;;;;;;;4.75;3.03;;;27.40;49.20;;;;;;5054700;28;20033;-70
2023/06/02 12:03:12;;;;;;;7.00;2.95;;;27.20;49.40;;;;;;5054576;28;20404;-70
2023/06/02 12:05:43;;;;;;;4.55;3.08;;;27.30;49.40;;;;;;5054603;28;20446;-70
2023/06/02 12:08:15;;;;;;;3.83;2.95;;;27.30;49.40;;;;;;5054579;28;20412;-70
2023/06/02 12:10:42;;;;;;;3.22;2.55;;;27.20;49.60;;;;;;5054735;28;20021;-72
2023/06/02 12:13:09;;;;;;;5.50;3.20;;;27.10;49.40;;;;;;5054381;28;20082;-69
2023/06/02 12:15:37;;;;;;;6.05;2.67;;;27.10;49.20;;;;;;5053208;28;20040;-70
2023/06/02 12:18:04;;;;;;;2.60;2.40;;;27.20;49.40;;;;;;5054484;28;20033;-70
2023/06/02 12:20:48;;;;;;;5.82;3.53;;;27.10;49.30;;;;;;5052829;28;20088;-70
2023/06/02 12:23:14;;;;;;;6.20;3.35;;;27.10;49.30;;;;;;5054492;28;20040;-71
2023/06/02 12:25:40;;;;;;;5.45;2.83;;;27.10;49.20;;;;;;5054038;28;20176;-70
2023/06/02 12:28:11;;;;;;;3.40;2.65;;;27.20;49.20;;;;;;5054034;28;20029;-71
2023/06/02 12:30:38;;;;;;;4.82;2.97;;;27.10;49.20;;;;;;5054236;28;20352;-70
2023/06/02 12:33:09;;;;;;;4.07;2.95;;;27.00;49.10;;;;;;5054193;28;20029;-71
2023/06/02 12:35:36;;;;;;;3.50;2.97;;;27.20;49.10;;;;;;5054140;28;20064;-70
2023/06/02 12:38:04;;;;;;;3.03;2.70;;;27.10;49.00;;;;;;5054068;28;20419;-70
2023/06/02 12:40:31;;;;;;;3.72;2.90;;;27.20;49.00;;;;;;5053756;28;20071;-70
2023/06/02 12:42:58;;;;;;;5.03;3.03;;;27.10;49.10;;;;;;5054056;28;20154;-70
2023/06/02 12:45:24;;;;;;;4.32;2.85;;;27.20;49.20;;;;;;5052423;28;20032;-69
2023/06/02 12:47:54;;;;;;;3.88;2.67;;;27.10;49.40;;;;;;5053780;28;20468;-69
2023/06/02 12:50:21;;;;;;;4.35;2.75;;;27.10;49.40;;;;;;5053600;28;20044;-70
2023/06/02 12:52:48;;;;;;;7.63;2.58;;;27.20;49.50;;;;;;5053600;28;20021;-70